Lakeville, Ohio
Current Conditions -  °F | °C
As of 11:56 PM on Friday 28 Nov 2014 (Local Time) from KBJJ Reporting Station
Overcast Overcast  
Wind Chill: 19°   Ceiling: 7000
Heat Index: 28°   Visibility: 10mi
Dew Point: 19°   Wind: 9mph
Humidity: 69%   Direction: 170°S
Pressure: 30.12"   Gusts: NA
Location:  40.66°N, 82.13°W
Report Text: KBJJ 290456Z AUTO 17008KT 10SM OVC070 M02/M07 A3012 RMK AO2 SLP215 T10221072 410221067 TSNO
Loading
Personal Weather Stations






























Interactive Weather Map New forecast layout! Learn more

10-Day Weather Forecast

Advertisements
Track Severe Weather on mobile